createdAt,value
2023-05-10T00:00:54.525Z,65.35
2023-05-10T00:03:20.975Z,65.26
2023-05-10T00:05:47.599Z,64.97
2023-05-10T00:08:14.143Z,64.96
2023-05-10T00:10:40.471Z,64.61
2023-05-10T00:13:06.855Z,64.18
2023-05-10T00:15:33.240Z,63.70
2023-05-10T00:17:59.593Z,65.36
2023-05-10T00:20:25.991Z,65.33
2023-05-10T00:22:52.333Z,65.61
2023-05-10T00:25:18.669Z,64.21
2023-05-10T00:27:45.109Z,65.23
2023-05-10T00:30:11.466Z,65.30
2023-05-10T00:32:37.898Z,64.97
2023-05-10T00:35:04.300Z,65.03
2023-05-10T00:37:30.632Z,65.32
2023-05-10T00:39:56.982Z,66.18
2023-05-10T00:42:23.383Z,66.34
2023-05-10T00:44:49.768Z,65.14
2023-05-10T00:47:16.155Z,65.10
2023-05-10T00:49:42.571Z,65.16
2023-05-10T00:52:08.913Z,65.25
2023-05-10T00:54:35.271Z,64.89
2023-05-10T00:57:01.688Z,63.61
2023-05-10T00:59:28.011Z,63.94
2023-05-10T01:01:54.345Z,65.17
2023-05-10T01:04:20.676Z,65.89
2023-05-10T01:06:47.017Z,65.75
2023-05-10T01:09:13.356Z,65.65
2023-05-10T01:11:39.768Z,65.21
2023-05-10T01:14:06.101Z,65.30
2023-05-10T01:16:32.481Z,65.45
2023-05-10T01:18:58.886Z,66.56
2023-05-10T01:21:25.230Z,65.92
2023-05-10T01:23:51.555Z,65.46
2023-05-10T01:26:17.871Z,65.02
2023-05-10T01:28:44.205Z,64.34
2023-05-10T01:31:10.557Z,64.95
2023-05-10T01:33:36.938Z,65.91
2023-05-10T01:36:03.391Z,66.12
2023-05-10T01:38:29.749Z,66.07
2023-05-10T01:40:56.087Z,66.08
2023-05-10T01:43:22.458Z,65.91
2023-05-10T01:45:48.796Z,65.85
2023-05-10T01:48:15.179Z,65.82
2023-05-10T01:50:41.510Z,66.32
2023-05-10T01:53:07.823Z,66.20
2023-05-10T01:55:34.137Z,66.37
2023-05-10T01:58:00.492Z,66.29
2023-05-10T02:00:26.932Z,67.59
2023-05-10T02:02:53.305Z,67.02
2023-05-10T02:05:19.755Z,66.62
2023-05-10T02:07:46.104Z,66.71
2023-05-10T02:10:12.454Z,67.76
2023-05-10T02:12:38.867Z,67.33
2023-05-10T02:15:05.202Z,67.61
2023-05-10T02:17:31.559Z,66.13
2023-05-10T02:19:57.948Z,65.00
2023-05-10T02:22:24.300Z,64.77
2023-05-10T02:24:50.649Z,65.15
2023-05-10T02:27:17.003Z,64.73
2023-05-10T02:29:43.401Z,65.38
2023-05-10T02:32:09.782Z,65.70
2023-05-10T02:34:36.432Z,65.41
2023-05-10T02:37:02.781Z,65.49
2023-05-10T02:39:29.144Z,66.13
2023-05-10T02:41:55.488Z,65.92
2023-05-10T02:44:21.858Z,65.65
2023-05-10T02:46:48.166Z,64.98
2023-05-10T02:49:14.519Z,64.74
2023-05-10T02:51:40.846Z,65.25
2023-05-10T02:54:07.222Z,65.16
2023-05-10T02:56:33.608Z,64.31
2023-05-10T02:58:59.961Z,65.52
2023-05-10T03:01:26.340Z,64.90
2023-05-10T03:03:52.693Z,65.55
2023-05-10T03:06:19.019Z,65.59
2023-05-10T03:08:45.365Z,67.21
2023-05-10T03:11:11.712Z,65.91
2023-05-10T03:13:38.033Z,65.66
2023-05-10T03:16:04.447Z,65.98
2023-05-10T03:18:30.787Z,66.39
2023-05-10T03:20:57.127Z,63.68
2023-05-10T03:23:23.457Z,63.29
2023-05-10T03:25:49.797Z,61.67
2023-05-10T03:28:16.139Z,60.94
2023-05-10T03:30:42.561Z,59.06
2023-05-10T03:33:08.989Z,59.79
2023-05-10T03:35:35.383Z,59.71
2023-05-10T03:38:01.716Z,59.66
2023-05-10T03:40:28.046Z,61.12
2023-05-10T03:42:54.398Z,60.74
2023-05-10T03:45:20.735Z,62.68
2023-05-10T03:47:47.087Z,66.62
2023-05-10T03:50:13.422Z,68.86
2023-05-10T03:52:39.752Z,70.56
2023-05-10T03:55:06.129Z,70.82
2023-05-10T03:57:32.512Z,72.10
2023-05-10T03:59:58.830Z,73.77
2023-05-10T04:02:25.335Z,77.01
2023-05-10T04:04:51.825Z,77.93
2023-05-10T04:07:18.144Z,77.60
2023-05-10T04:09:44.503Z,78.38
2023-05-10T04:12:11.128Z,76.60
2023-05-10T04:14:37.550Z,75.36
2023-05-10T04:17:03.885Z,77.11
2023-05-10T04:19:30.359Z,75.62
2023-05-10T04:21:56.677Z,74.71
2023-05-10T04:24:22.987Z,74.55
2023-05-10T04:26:49.307Z,72.88
2023-05-10T04:29:15.718Z,72.01
2023-05-10T04:31:42.037Z,71.39
2023-05-10T04:34:08.365Z,74.41
2023-05-10T04:36:34.691Z,76.14
2023-05-10T04:39:01.468Z,75.49
2023-05-10T04:41:27.865Z,73.89
2023-05-10T04:43:54.299Z,75.60
2023-05-10T04:46:20.724Z,75.61
2023-05-10T04:48:47.103Z,74.98
2023-05-10T04:51:13.511Z,75.93
2023-05-10T04:53:39.879Z,74.26
2023-05-10T04:56:06.256Z,73.52
2023-05-10T04:58:32.593Z,75.14
2023-05-10T05:00:58.949Z,73.32
2023-05-10T05:03:25.411Z,74.90
2023-05-10T05:05:51.821Z,74.15
2023-05-10T05:08:18.166Z,71.16
2023-05-10T05:10:44.485Z,70.94
2023-05-10T05:13:10.853Z,71.55
2023-05-10T05:15:37.256Z,71.41
2023-05-10T05:18:03.623Z,69.81
2023-05-10T05:20:30.050Z,70.02
2023-05-10T05:22:56.379Z,71.06
2023-05-10T05:25:22.714Z,68.17
2023-05-10T05:27:49.075Z,72.31
2023-05-10T05:30:15.670Z,72.01
2023-05-10T05:32:42.178Z,72.70
2023-05-10T05:35:08.557Z,70.82
2023-05-10T05:37:34.915Z,72.19
2023-05-10T05:40:01.260Z,71.11
2023-05-10T05:42:27.594Z,71.72
2023-05-10T05:44:53.929Z,70.32
2023-05-10T05:47:20.262Z,71.41
2023-05-10T05:49:46.587Z,73.40
2023-05-10T05:52:12.902Z,73.57
2023-05-10T05:54:39.211Z,73.06
2023-05-10T05:57:05.548Z,70.70
2023-05-10T05:59:31.902Z,71.91
2023-05-10T06:01:58.257Z,67.98
2023-05-10T06:04:24.612Z,68.63
2023-05-10T06:06:50.943Z,67.99
2023-05-10T06:09:17.331Z,65.66
2023-05-10T06:11:43.702Z,64.07
2023-05-10T06:14:10.042Z,65.23
2023-05-10T06:16:36.435Z,62.22
2023-05-10T06:19:02.799Z,65.68
2023-05-10T06:21:29.132Z,67.95
2023-05-10T06:23:55.467Z,68.55
2023-05-10T06:26:21.835Z,69.85
2023-05-10T06:28:48.170Z,69.65
2023-05-10T06:31:14.510Z,70.49
2023-05-10T06:33:40.895Z,68.89
2023-05-10T06:36:07.214Z,70.32
2023-05-10T06:38:33.858Z,70.01
2023-05-10T06:41:00.233Z,69.27
2023-05-10T06:43:26.614Z,68.06
2023-05-10T06:45:52.958Z,69.57
2023-05-10T06:48:19.414Z,68.29
2023-05-10T06:50:46.284Z,68.77
2023-05-10T06:53:12.629Z,68.48
2023-05-10T06:55:38.991Z,66.21
2023-05-10T06:58:05.300Z,67.89
2023-05-10T07:00:31.703Z,65.73
2023-05-10T07:02:58.119Z,65.07
2023-05-10T07:05:24.534Z,66.10
2023-05-10T07:07:50.988Z,63.79
2023-05-10T07:10:17.293Z,64.90
2023-05-10T07:12:43.821Z,66.37
2023-05-10T07:15:10.191Z,66.02
2023-05-10T07:17:36.650Z,63.83
2023-05-10T07:20:03.045Z,64.94
2023-05-10T07:22:29.374Z,66.61
2023-05-10T07:24:55.687Z,67.73
2023-05-10T07:27:22.041Z,66.18
2023-05-10T07:29:48.365Z,66.98
2023-05-10T07:32:14.811Z,66.98
2023-05-10T07:34:41.189Z,64.93
2023-05-10T07:37:07.514Z,66.90
2023-05-10T07:39:33.846Z,66.13
2023-05-10T07:42:00.152Z,65.09
2023-05-10T07:44:26.475Z,62.96
2023-05-10T07:46:52.845Z,65.87
2023-05-10T07:49:19.244Z,61.96
2023-05-10T07:51:45.609Z,60.73
2023-05-10T07:54:11.969Z,65.04
2023-05-10T07:56:38.301Z,61.46
2023-05-10T07:59:04.611Z,64.73
2023-05-10T08:01:30.960Z,64.24
2023-05-10T08:03:57.330Z,64.19
2023-05-10T08:06:23.762Z,64.10
2023-05-10T08:08:50.212Z,63.45
2023-05-10T08:11:16.607Z,60.64
2023-05-10T08:13:42.939Z,62.95
2023-05-10T08:16:09.347Z,58.95
2023-05-10T08:18:35.713Z,58.75
2023-05-10T08:21:02.043Z,61.06
2023-05-10T08:23:28.375Z,58.23
2023-05-10T08:25:54.695Z,61.66
2023-05-10T08:28:21.020Z,58.99
2023-05-10T08:30:47.339Z,57.88
2023-05-10T08:33:13.691Z,59.18
2023-05-10T08:35:40.043Z,58.76
2023-05-10T08:38:06.361Z,58.57
2023-05-10T08:40:32.684Z,59.12
2023-05-10T08:42:59.025Z,59.98
2023-05-10T08:45:25.393Z,58.67
2023-05-10T08:47:51.741Z,61.75
2023-05-10T08:50:18.104Z,58.89
2023-05-10T08:52:44.450Z,59.69
2023-05-10T08:55:10.786Z,58.30
2023-05-10T08:57:37.139Z,60.20
2023-05-10T09:00:03.465Z,63.21
2023-05-10T09:02:29.863Z,60.31
2023-05-10T09:04:56.308Z,60.43
2023-05-10T09:07:22.701Z,57.57
2023-05-10T09:09:49.033Z,57.19
2023-05-10T09:12:15.379Z,60.71
2023-05-10T09:14:41.723Z,58.50
2023-05-10T09:17:08.121Z,59.13
2023-05-10T09:19:34.533Z,57.14
2023-05-10T09:22:00.863Z,57.42
2023-05-10T09:24:27.187Z,58.87
2023-05-10T09:26:53.525Z,57.76
2023-05-10T09:29:19.928Z,58.62
2023-05-10T09:31:46.266Z,56.88
2023-05-10T09:34:12.608Z,56.63
2023-05-10T09:36:38.950Z,57.54
2023-05-10T09:39:05.269Z,56.43
2023-05-10T09:41:31.680Z,57.29
2023-05-10T09:43:58.313Z,56.17
2023-05-10T09:46:24.836Z,56.82
2023-05-10T09:48:51.221Z,56.99
2023-05-10T09:51:19.838Z,60.15
2023-05-10T09:53:46.248Z,60.17
2023-05-10T09:56:12.635Z,58.02
2023-05-10T09:58:39.044Z,60.40
2023-05-10T10:01:05.633Z,61.56
2023-05-10T10:03:32.067Z,59.28
2023-05-10T10:05:58.482Z,59.29
2023-05-10T10:08:25.007Z,58.38
2023-05-10T10:10:51.442Z,59.45
2023-05-10T10:13:17.846Z,58.79
2023-05-10T10:15:44.388Z,56.99
2023-05-10T10:18:10.985Z,57.17
2023-05-10T10:20:37.442Z,57.67
2023-05-10T10:23:03.831Z,58.65
2023-05-10T10:25:30.271Z,58.95
2023-05-10T10:27:56.785Z,55.74
2023-05-10T10:30:23.197Z,56.09
2023-05-10T10:32:49.734Z,56.92
2023-05-10T10:35:16.332Z,57.84
2023-05-10T10:37:42.960Z,58.92
2023-05-10T10:40:09.407Z,58.09
2023-05-10T10:42:38.562Z,56.86
2023-05-10T10:45:04.941Z,56.91
2023-05-10T10:47:31.433Z,57.10
2023-05-10T10:49:57.880Z,56.21
2023-05-10T10:52:24.318Z,55.17
2023-05-10T10:54:50.752Z,55.53
2023-05-10T10:57:17.158Z,57.27
2023-05-10T10:59:43.524Z,57.24
2023-05-10T11:02:09.917Z,54.37
2023-05-10T11:04:36.328Z,54.45
2023-05-10T11:07:02.746Z,53.75
2023-05-10T11:09:29.158Z,56.31
2023-05-10T11:11:55.717Z,55.09
2023-05-10T11:14:22.180Z,53.95
2023-05-10T11:16:48.658Z,48.38
2023-05-10T11:19:15.187Z,49.19
2023-05-10T11:21:41.616Z,49.94
2023-05-10T11:24:08.062Z,47.32
2023-05-10T11:26:34.574Z,49.08
2023-05-10T11:29:01.021Z,48.91
2023-05-10T11:31:27.530Z,48.42
2023-05-10T11:33:54.076Z,49.11
2023-05-10T11:36:20.468Z,45.82
2023-05-10T11:38:46.787Z,45.77
2023-05-10T11:41:13.217Z,47.49
2023-05-10T11:43:39.643Z,47.90
2023-05-10T11:46:06.157Z,50.14
2023-05-10T11:48:32.538Z,49.44
2023-05-10T11:50:58.984Z,49.56
2023-05-10T11:53:25.916Z,49.67
2023-05-10T11:55:52.413Z,44.85
2023-05-10T11:58:18.860Z,46.09
2023-05-10T12:00:45.288Z,47.25
2023-05-10T12:03:11.768Z,48.53
2023-05-10T12:05:38.220Z,48.68
2023-05-10T12:08:04.573Z,46.62
2023-05-10T12:10:30.902Z,47.86
2023-05-10T12:12:57.316Z,48.28
2023-05-10T12:15:23.700Z,49.88
2023-05-10T12:17:50.126Z,50.39
2023-05-10T12:20:16.935Z,51.21
2023-05-10T12:22:43.560Z,51.74
2023-05-10T12:25:10.218Z,48.80
2023-05-10T12:27:36.615Z,50.03
2023-05-10T12:30:03.102Z,48.76
2023-05-10T12:32:29.663Z,48.29
2023-05-10T12:34:56.099Z,46.53
2023-05-10T12:37:22.453Z,47.23
2023-05-10T12:39:48.779Z,47.95
2023-05-10T12:42:15.210Z,47.78
2023-05-10T12:44:41.565Z,45.51
2023-05-10T12:47:07.905Z,45.72
2023-05-10T12:49:34.259Z,43.50
2023-05-10T12:52:00.591Z,44.81
2023-05-10T12:54:26.968Z,44.93
2023-05-10T12:56:53.341Z,45.63
2023-05-10T12:59:19.691Z,45.83
2023-05-10T13:01:46.208Z,46.83
2023-05-10T13:04:12.739Z,47.14
2023-05-10T13:06:39.090Z,46.34
2023-05-10T13:09:05.509Z,44.14
2023-05-10T13:11:31.947Z,43.32
2023-05-10T13:13:58.415Z,43.71
2023-05-10T13:16:24.915Z,43.02
2023-05-10T13:18:51.352Z,43.66
2023-05-10T13:21:17.815Z,42.94
2023-05-10T13:23:45.470Z,44.49
2023-05-10T13:26:11.878Z,42.85
2023-05-10T13:28:38.227Z,41.79
2023-05-10T13:31:04.709Z,43.61
2023-05-10T13:33:31.299Z,42.90
2023-05-10T13:35:57.773Z,44.30
2023-05-10T13:38:24.151Z,43.29
2023-05-10T13:40:50.744Z,42.70
2023-05-10T13:43:17.129Z,43.26
2023-05-10T13:45:43.505Z,43.62
2023-05-10T13:48:09.892Z,43.03
2023-05-10T13:50:36.232Z,42.54
2023-05-10T13:53:02.671Z,43.77
2023-05-10T13:55:29.073Z,44.11
2023-05-10T13:57:57.866Z,45.99
2023-05-10T14:00:24.190Z,45.74
2023-05-10T14:02:50.635Z,48.44
2023-05-10T14:05:18.734Z,48.21
2023-05-10T14:07:45.878Z,49.00
2023-05-10T14:10:12.203Z,47.87
2023-05-10T14:12:38.562Z,47.50
2023-05-10T14:15:04.934Z,48.05
2023-05-10T14:17:31.427Z,48.36
2023-05-10T14:19:57.919Z,47.33
2023-05-10T14:22:24.399Z,46.80
2023-05-10T14:24:50.769Z,45.68
2023-05-10T14:27:17.129Z,46.93
2023-05-10T14:29:43.536Z,44.74
2023-05-10T14:32:10.087Z,45.25
2023-05-10T14:34:36.553Z,45.16
2023-05-10T14:37:02.940Z,46.57
2023-05-10T14:39:29.262Z,45.82
2023-05-10T14:41:55.621Z,45.54
2023-05-10T14:44:21.940Z,45.51
2023-05-10T14:46:48.286Z,46.04
2023-05-10T14:49:14.687Z,45.41
2023-05-10T14:51:41.035Z,45.64
2023-05-10T14:54:07.435Z,44.30
2023-05-10T14:56:33.762Z,44.09
2023-05-10T14:59:00.165Z,44.55
2023-05-10T15:01:26.989Z,43.30
2023-05-10T15:03:53.930Z,42.54
2023-05-10T15:06:20.777Z,42.39
2023-05-10T15:08:47.181Z,42.21
2023-05-10T15:11:13.569Z,42.35
2023-05-10T15:13:39.921Z,42.17
2023-05-10T15:16:06.294Z,43.60
2023-05-10T15:18:35.177Z,42.31
2023-05-10T15:21:01.584Z,42.43
2023-05-10T15:23:28.009Z,44.25
2023-05-10T15:25:54.418Z,46.52
2023-05-10T15:28:20.770Z,47.45
2023-05-10T15:30:47.109Z,48.52
2023-05-10T15:35:56.814Z,47.21
2023-05-10T15:38:23.306Z,46.60
2023-05-10T15:40:49.732Z,43.58
2023-05-10T15:43:16.125Z,42.67
2023-05-10T15:45:42.562Z,42.61
2023-05-10T15:48:09.054Z,41.22
2023-05-10T15:50:35.418Z,41.53
2023-05-10T15:53:01.776Z,42.40
2023-05-10T15:55:28.150Z,42.88
2023-05-10T15:57:54.483Z,45.82
2023-05-10T16:00:20.812Z,47.03
2023-05-10T16:02:47.227Z,44.96
2023-05-10T16:05:13.694Z,44.54
2023-05-10T16:07:40.037Z,45.07
2023-05-10T16:10:06.443Z,45.05
2023-05-10T16:12:32.833Z,44.70
2023-05-10T16:14:59.202Z,45.09
2023-05-10T16:17:25.713Z,44.57
2023-05-10T16:19:52.118Z,43.84
2023-05-10T16:22:18.549Z,43.28
2023-05-10T16:24:44.930Z,43.79
2023-05-10T16:27:11.290Z,44.23
2023-05-10T16:29:37.696Z,44.30
2023-05-10T16:32:04.044Z,44.48
2023-05-10T16:34:30.386Z,43.79
2023-05-10T16:36:56.787Z,43.50
2023-05-10T16:39:23.218Z,43.19
2023-05-10T16:41:49.564Z,42.80
2023-05-10T16:44:16.839Z,43.96
2023-05-10T16:46:44.731Z,43.72
2023-05-10T16:49:11.410Z,43.52
2023-05-10T16:51:38.064Z,43.23
2023-05-10T16:54:04.460Z,43.00
2023-05-10T16:56:36.065Z,42.94
2023-05-10T16:59:02.488Z,43.14
2023-05-10T17:01:28.934Z,43.89
2023-05-10T17:03:55.377Z,44.07
2023-05-10T17:14:22.429Z,43.85
2023-05-10T17:16:48.914Z,44.87
2023-05-10T17:19:15.430Z,43.87
2023-05-10T17:21:41.832Z,44.68
2023-05-10T17:24:08.282Z,44.50
2023-05-10T17:26:34.811Z,44.37
2023-05-10T17:29:01.257Z,45.11
2023-05-10T17:31:27.706Z,44.60
2023-05-10T17:33:54.182Z,45.03
2023-05-10T17:36:20.589Z,45.47
2023-05-10T17:41:33.992Z,43.81
2023-05-10T17:44:00.364Z,44.81
2023-05-10T17:46:26.795Z,44.65
2023-05-10T17:48:56.312Z,45.23
2023-05-10T17:51:24.858Z,45.91
2023-05-10T17:56:26.515Z,46.89
2023-05-10T17:58:55.100Z,47.14
2023-05-10T18:01:21.569Z,45.44
2023-05-10T18:03:48.122Z,44.83
2023-05-10T18:06:14.546Z,46.06
2023-05-10T18:08:40.908Z,45.68
2023-05-10T18:11:07.317Z,45.14
2023-05-10T18:13:33.691Z,45.04
2023-05-10T18:16:00.113Z,44.49
2023-05-10T18:18:26.517Z,45.28
2023-05-10T18:20:53.028Z,46.03
2023-05-10T18:23:19.498Z,46.72
2023-05-10T18:25:45.906Z,46.67
2023-05-10T18:28:12.357Z,47.47
2023-05-10T18:30:38.744Z,47.91
2023-05-10T18:33:05.188Z,48.48
2023-05-10T18:35:31.564Z,49.08
2023-05-10T18:37:58.030Z,50.47
2023-05-10T18:40:24.460Z,50.69
2023-05-10T18:42:50.838Z,51.55
2023-05-10T18:45:17.466Z,51.57
2023-05-10T18:47:44.156Z,51.61
2023-05-10T18:50:10.700Z,51.52
2023-05-10T18:52:37.168Z,52.30
2023-05-10T18:55:03.558Z,53.11
2023-05-10T18:57:31.234Z,54.12
2023-05-10T18:59:57.659Z,53.96
2023-05-10T19:02:24.220Z,54.31
2023-05-10T19:04:50.753Z,53.77
2023-05-10T19:07:17.388Z,54.74
2023-05-10T19:09:43.878Z,55.04
2023-05-10T19:12:10.208Z,53.96
2023-05-10T19:14:47.097Z,54.45
2023-05-10T19:19:42.866Z,56.35
2023-05-10T19:22:12.146Z,56.79
2023-05-10T19:27:14.988Z,56.51
2023-05-10T19:29:41.709Z,56.52
2023-05-10T19:32:08.131Z,56.65
2023-05-10T19:34:34.545Z,56.26
2023-05-10T19:37:03.998Z,55.56
2023-05-10T19:42:16.388Z,55.43
2023-05-10T19:44:42.849Z,55.42
2023-05-10T19:47:09.348Z,55.03
2023-05-10T19:49:35.856Z,55.11
2023-05-10T19:52:02.321Z,55.26
2023-05-10T19:54:28.754Z,55.80
2023-05-10T19:57:04.074Z,56.18
2023-05-10T19:59:30.532Z,57.09
2023-05-10T20:01:56.959Z,56.77
2023-05-10T20:04:23.372Z,57.63
2023-05-10T20:06:49.855Z,58.41
2023-05-10T20:09:16.227Z,59.38
2023-05-10T20:11:42.566Z,59.90
2023-05-10T20:14:09.003Z,59.62
2023-05-10T20:16:35.395Z,59.42
2023-05-10T20:19:01.806Z,59.23
2023-05-10T20:21:28.221Z,59.92
2023-05-10T20:23:54.666Z,59.61
2023-05-10T20:26:20.996Z,59.79
2023-05-10T20:28:47.346Z,59.87
2023-05-10T20:31:13.689Z,60.50
2023-05-10T20:33:40.153Z,60.99
2023-05-10T20:36:06.499Z,61.04
2023-05-10T20:38:32.830Z,60.12
2023-05-10T20:40:59.155Z,59.83
2023-05-10T20:43:25.470Z,59.34
2023-05-10T20:45:51.881Z,59.05
2023-05-10T20:48:18.264Z,59.46
2023-05-10T20:50:44.589Z,59.67
2023-05-10T20:53:10.985Z,59.71
2023-05-10T20:55:37.576Z,60.07
2023-05-10T20:58:05.089Z,59.74
2023-05-10T21:00:31.688Z,58.53
2023-05-10T21:02:58.025Z,58.04
2023-05-10T21:05:24.427Z,57.85
2023-05-10T21:07:50.850Z,58.76
2023-05-10T21:10:17.478Z,58.92
2023-05-10T21:12:44.002Z,58.47
2023-05-10T21:15:10.367Z,57.68
2023-05-10T21:17:36.730Z,56.99
2023-05-10T21:20:03.119Z,56.70
2023-05-10T21:22:29.492Z,57.71
2023-05-10T21:24:55.829Z,56.93
2023-05-10T21:27:22.162Z,59.12
2023-05-10T21:29:48.507Z,58.65
2023-05-10T21:32:14.897Z,59.47
2023-05-10T21:34:41.337Z,58.87
2023-05-10T21:37:07.711Z,59.72
2023-05-10T21:39:34.275Z,60.47
2023-05-10T21:42:00.613Z,60.59
2023-05-10T21:44:26.965Z,60.91
2023-05-10T21:46:53.278Z,61.04
2023-05-10T21:49:19.630Z,59.33
2023-05-10T21:51:45.976Z,58.22
2023-05-10T21:54:12.427Z,57.60
2023-05-10T21:56:38.872Z,57.41
2023-05-10T21:59:05.710Z,54.65
2023-05-10T22:01:32.086Z,53.93
2023-05-10T22:03:58.466Z,53.64
2023-05-10T22:06:24.797Z,53.97
2023-05-10T22:08:51.134Z,53.74
2023-05-10T22:11:17.451Z,53.74
2023-05-10T22:13:43.764Z,53.65
2023-05-10T22:16:10.093Z,54.36
2023-05-10T22:18:36.444Z,55.09
2023-05-10T22:21:02.788Z,58.20
2023-05-10T22:23:29.120Z,58.97
2023-05-10T22:25:55.529Z,58.79
2023-05-10T22:28:21.893Z,58.93
2023-05-10T22:30:48.307Z,59.33
2023-05-10T22:33:14.672Z,59.45
2023-05-10T22:35:41.016Z,59.16
2023-05-10T22:38:07.405Z,59.10
2023-05-10T22:40:33.735Z,58.72
2023-05-10T22:43:00.085Z,58.61
2023-05-10T22:45:26.406Z,58.07
2023-05-10T22:47:52.885Z,58.31
2023-05-10T22:50:19.616Z,59.36
2023-05-10T22:52:46.185Z,58.57
2023-05-10T22:55:12.531Z,58.68
2023-05-10T22:57:38.897Z,58.66
2023-05-10T23:00:05.539Z,58.65
2023-05-10T23:02:33.015Z,58.91
2023-05-10T23:04:59.389Z,58.67
2023-05-10T23:07:25.917Z,58.81
2023-05-10T23:09:52.311Z,58.43
2023-05-10T23:12:18.654Z,57.96
2023-05-10T23:14:45.026Z,58.45
2023-05-10T23:17:11.342Z,58.45
2023-05-10T23:19:37.704Z,56.57
2023-05-10T23:22:04.066Z,56.80
2023-05-10T23:24:30.392Z,55.18
2023-05-10T23:26:56.727Z,55.03
2023-05-10T23:29:23.117Z,57.00
2023-05-10T23:31:49.492Z,58.65
2023-05-10T23:34:15.822Z,58.68
2023-05-10T23:36:42.188Z,59.33
2023-05-10T23:39:08.545Z,59.30
2023-05-10T23:41:34.856Z,59.91
2023-05-10T23:44:01.222Z,59.17
2023-05-10T23:46:27.553Z,59.07
2023-05-10T23:48:53.874Z,59.47
2023-05-10T23:51:20.175Z,60.22
2023-05-10T23:53:46.523Z,59.97
2023-05-10T23:56:12.867Z,60.90
2023-05-10T23:58:39.189Z,61.03
